sensor_id;sensor_type;location;lat;lon;timestamp;temperature;humidity
21035;DHT22;10676;50.848;3.272;2023-04-30T00:01:49;6.80;99.90
21035;DHT22;10676;50.848;3.272;2023-04-30T00:04:14;6.80;99.90
21035;DHT22;10676;50.848;3.272;2023-04-30T00:06:40;6.80;99.90
21035;DHT22;10676;50.848;3.272;2023-04-30T00:09:06;6.90;99.90
21035;DHT22;10676;50.848;3.272;2023-04-30T00:11:31;6.90;99.90
21035;DHT22;10676;50.848;3.272;2023-04-30T00:13:58;7.00;99.90
21035;DHT22;10676;50.848;3.272;2023-04-30T00:16:24;7.00;99.90
21035;DHT22;10676;50.848;3.272;2023-04-30T00:18:50;6.90;99.90
21035;DHT22;10676;50.848;3.272;2023-04-30T00:21:15;6.90;99.90
21035;DHT22;10676;50.848;3.272;2023-04-30T00:23:41;6.90;99.90
21035;DHT22;10676;50.848;3.272;2023-04-30T00:26:09;6.90;99.90
21035;DHT22;10676;50.848;3.272;2023-04-30T00:28:35;6.80;99.90
21035;DHT22;10676;50.848;3.272;2023-04-30T00:31:01;6.80;99.90
21035;DHT22;10676;50.848;3.272;2023-04-30T00:33:27;6.70;99.90
21035;DHT22;10676;50.848;3.272;2023-04-30T00:35:52;6.60;99.90
21035;DHT22;10676;50.848;3.272;2023-04-30T00:38:18;6.60;99.90
21035;DHT22;10676;50.848;3.272;2023-04-30T00:40:44;6.50;99.90
21035;DHT22;10676;50.848;3.272;2023-04-30T00:43:10;6.40;99.90
21035;DHT22;10676;50.848;3.272;2023-04-30T00:45:39;6.40;99.90
21035;DHT22;10676;50.848;3.272;2023-04-30T00:48:04;6.30;99.90
21035;DHT22;10676;50.848;3.272;2023-04-30T00:50:30;6.30;99.90
21035;DHT22;10676;50.848;3.272;2023-04-30T00:52:56;6.30;99.90
21035;DHT22;10676;50.848;3.272;2023-04-30T00:55:24;6.20;99.90
21035;DHT22;10676;50.848;3.272;2023-04-30T00:57:50;6.20;99.90
21035;DHT22;10676;50.848;3.272;2023-04-30T01:00:16;6.10;99.90
21035;DHT22;10676;50.848;3.272;2023-04-30T01:02:42;6.10;99.90
21035;DHT22;10676;50.848;3.272;2023-04-30T01:05:08;6.00;99.90
21035;DHT22;10676;50.848;3.272;2023-04-30T01:07:35;6.00;99.90
21035;DHT22;10676;50.848;3.272;2023-04-30T01:10:03;5.90;99.90
21035;DHT22;10676;50.848;3.272;2023-04-30T01:12:42;5.90;99.90
21035;DHT22;10676;50.848;3.272;2023-04-30T01:15:55;5.80;99.90
21035;DHT22;10676;50.848;3.272;2023-04-30T01:18:59;5.90;99.90
21035;DHT22;10676;50.848;3.272;2023-04-30T01:21:27;5.90;99.90
21035;DHT22;10676;50.848;3.272;2023-04-30T01:29:36;5.80;99.90
21035;DHT22;10676;50.848;3.272;2023-04-30T01:32:03;5.80;99.90
21035;DHT22;10676;50.848;3.272;2023-04-30T01:34:29;5.80;99.90
21035;DHT22;10676;50.848;3.272;2023-04-30T01:37:21;5.80;99.90
21035;DHT22;10676;50.848;3.272;2023-04-30T01:42:39;5.70;99.90
21035;DHT22;10676;50.848;3.272;2023-04-30T01:47:56;5.70;99.90
21035;DHT22;10676;50.848;3.272;2023-04-30T01:53:43;5.60;99.90
21035;DHT22;10676;50.848;3.272;2023-04-30T01:56:30;5.60;99.90
21035;DHT22;10676;50.848;3.272;2023-04-30T01:58:56;5.60;99.90
21035;DHT22;10676;50.848;3.272;2023-04-30T02:01:28;5.60;99.90
21035;DHT22;10676;50.848;3.272;2023-04-30T02:03:54;5.60;99.90
21035;DHT22;10676;50.848;3.272;2023-04-30T02:06:20;5.60;99.90
21035;DHT22;10676;50.848;3.272;2023-04-30T02:08:45;5.60;99.90
21035;DHT22;10676;50.848;3.272;2023-04-30T02:11:11;5.60;99.90
21035;DHT22;10676;50.848;3.272;2023-04-30T02:13:37;5.60;99.90
21035;DHT22;10676;50.848;3.272;2023-04-30T02:16:03;5.60;99.90
21035;DHT22;10676;50.848;3.272;2023-04-30T02:18:29;5.60;99.90
21035;DHT22;10676;50.848;3.272;2023-04-30T02:20:55;5.70;99.90
21035;DHT22;10676;50.848;3.272;2023-04-30T02:23:21;5.70;99.90
21035;DHT22;10676;50.848;3.272;2023-04-30T02:25:46;5.80;99.90
21035;DHT22;10676;50.848;3.272;2023-04-30T02:28:12;5.80;99.90
21035;DHT22;10676;50.848;3.272;2023-04-30T02:30:37;5.90;99.90
21035;DHT22;10676;50.848;3.272;2023-04-30T02:33:03;6.00;99.90
21035;DHT22;10676;50.848;3.272;2023-04-30T02:35:29;6.00;99.90
21035;DHT22;10676;50.848;3.272;2023-04-30T02:37:55;6.10;99.90
21035;DHT22;10676;50.848;3.272;2023-04-30T02:40:21;6.10;99.90
21035;DHT22;10676;50.848;3.272;2023-04-30T02:42:46;6.20;99.90
21035;DHT22;10676;50.848;3.272;2023-04-30T02:45:12;6.20;99.90
21035;DHT22;10676;50.848;3.272;2023-04-30T02:47:38;6.30;99.90
21035;DHT22;10676;50.848;3.272;2023-04-30T02:50:04;6.30;99.90
21035;DHT22;10676;50.848;3.272;2023-04-30T02:52:31;6.30;99.90
21035;DHT22;10676;50.848;3.272;2023-04-30T02:54:56;6.30;99.90
21035;DHT22;10676;50.848;3.272;2023-04-30T02:57:22;6.20;99.90
21035;DHT22;10676;50.848;3.272;2023-04-30T02:59:48;6.10;99.90
21035;DHT22;10676;50.848;3.272;2023-04-30T03:02:13;6.10;99.90
21035;DHT22;10676;50.848;3.272;2023-04-30T03:04:39;6.00;99.90
21035;DHT22;10676;50.848;3.272;2023-04-30T03:07:05;6.00;99.90
21035;DHT22;10676;50.848;3.272;2023-04-30T03:09:31;6.00;99.90
21035;DHT22;10676;50.848;3.272;2023-04-30T03:11:57;5.90;99.90
21035;DHT22;10676;50.848;3.272;2023-04-30T03:14:22;5.80;99.90
21035;DHT22;10676;50.848;3.272;2023-04-30T03:16:48;5.80;99.90
21035;DHT22;10676;50.848;3.272;2023-04-30T03:19:14;5.70;99.90
21035;DHT22;10676;50.848;3.272;2023-04-30T03:21:39;5.70;99.90
21035;DHT22;10676;50.848;3.272;2023-04-30T03:24:05;5.60;99.90
21035;DHT22;10676;50.848;3.272;2023-04-30T03:26:31;5.70;99.90
21035;DHT22;10676;50.848;3.272;2023-04-30T03:28:57;5.70;99.90
21035;DHT22;10676;50.848;3.272;2023-04-30T03:31:22;5.60;99.90
21035;DHT22;10676;50.848;3.272;2023-04-30T03:33:48;5.60;99.90
21035;DHT22;10676;50.848;3.272;2023-04-30T03:36:14;5.70;99.90
21035;DHT22;10676;50.848;3.272;2023-04-30T03:38:40;5.70;99.90
21035;DHT22;10676;50.848;3.272;2023-04-30T03:41:07;5.70;99.90
21035;DHT22;10676;50.848;3.272;2023-04-30T03:43:33;5.80;99.90
21035;DHT22;10676;50.848;3.272;2023-04-30T03:45:58;5.80;99.90
21035;DHT22;10676;50.848;3.272;2023-04-30T03:48:24;5.90;99.90
21035;DHT22;10676;50.848;3.272;2023-04-30T03:50:50;5.90;99.90
21035;DHT22;10676;50.848;3.272;2023-04-30T03:53:16;5.90;99.90
21035;DHT22;10676;50.848;3.272;2023-04-30T03:55:41;6.00;99.90
21035;DHT22;10676;50.848;3.272;2023-04-30T03:58:07;6.00;99.90
21035;DHT22;10676;50.848;3.272;2023-04-30T04:00:33;6.00;99.90
21035;DHT22;10676;50.848;3.272;2023-04-30T04:02:59;6.00;99.90
21035;DHT22;10676;50.848;3.272;2023-04-30T04:05:25;6.00;99.90
21035;DHT22;10676;50.848;3.272;2023-04-30T04:07:54;5.90;99.90
21035;DHT22;10676;50.848;3.272;2023-04-30T04:10:20;5.90;99.90
21035;DHT22;10676;50.848;3.272;2023-04-30T04:12:46;5.80;99.90
21035;DHT22;10676;50.848;3.272;2023-04-30T04:15:11;5.80;99.90
21035;DHT22;10676;50.848;3.272;2023-04-30T04:17:37;5.70;99.90
21035;DHT22;10676;50.848;3.272;2023-04-30T04:20:03;5.70;99.90
21035;DHT22;10676;50.848;3.272;2023-04-30T04:22:30;5.70;99.90
21035;DHT22;10676;50.848;3.272;2023-04-30T04:24:56;5.80;99.90
21035;DHT22;10676;50.848;3.272;2023-04-30T04:27:22;5.80;99.90
21035;DHT22;10676;50.848;3.272;2023-04-30T04:29:48;5.90;99.90
21035;DHT22;10676;50.848;3.272;2023-04-30T04:32:14;5.90;99.90
21035;DHT22;10676;50.848;3.272;2023-04-30T04:34:40;5.90;99.90
21035;DHT22;10676;50.848;3.272;2023-04-30T04:37:07;6.00;99.90
21035;DHT22;10676;50.848;3.272;2023-04-30T04:39:33;6.00;99.90
21035;DHT22;10676;50.848;3.272;2023-04-30T04:41:58;6.10;99.90
21035;DHT22;10676;50.848;3.272;2023-04-30T04:44:24;6.20;99.90
21035;DHT22;10676;50.848;3.272;2023-04-30T04:46:52;6.30;99.90
21035;DHT22;10676;50.848;3.272;2023-04-30T04:49:18;6.40;99.90
21035;DHT22;10676;50.848;3.272;2023-04-30T04:51:44;6.60;99.90
21035;DHT22;10676;50.848;3.272;2023-04-30T04:54:09;6.80;99.90
21035;DHT22;10676;50.848;3.272;2023-04-30T04:56:35;7.10;99.90
21035;DHT22;10676;50.848;3.272;2023-04-30T04:59:01;7.30;99.90
21035;DHT22;10676;50.848;3.272;2023-04-30T05:01:27;7.60;99.90
21035;DHT22;10676;50.848;3.272;2023-04-30T05:03:54;7.90;99.90
21035;DHT22;10676;50.848;3.272;2023-04-30T05:06:19;8.10;99.90
21035;DHT22;10676;50.848;3.272;2023-04-30T05:08:45;8.40;99.90
21035;DHT22;10676;50.848;3.272;2023-04-30T05:11:11;8.60;99.90
21035;DHT22;10676;50.848;3.272;2023-04-30T05:13:36;8.90;99.90
21035;DHT22;10676;50.848;3.272;2023-04-30T05:16:03;9.20;99.90
21035;DHT22;10676;50.848;3.272;2023-04-30T05:18:28;9.70;99.90
21035;DHT22;10676;50.848;3.272;2023-04-30T05:20:54;10.30;99.90
21035;DHT22;10676;50.848;3.272;2023-04-30T05:23:19;10.80;99.90
21035;DHT22;10676;50.848;3.272;2023-04-30T05:25:50;11.30;99.90
21035;DHT22;10676;50.848;3.272;2023-04-30T05:28:18;11.90;99.90
21035;DHT22;10676;50.848;3.272;2023-04-30T05:30:43;12.40;99.90
21035;DHT22;10676;50.848;3.272;2023-04-30T05:33:10;12.90;99.90
21035;DHT22;10676;50.848;3.272;2023-04-30T05:35:35;13.30;99.90
21035;DHT22;10676;50.848;3.272;2023-04-30T05:38:02;13.80;99.90
21035;DHT22;10676;50.848;3.272;2023-04-30T05:40:28;14.30;99.90
21035;DHT22;10676;50.848;3.272;2023-04-30T05:42:54;14.70;99.90
21035;DHT22;10676;50.848;3.272;2023-04-30T05:45:20;15.40;99.90
21035;DHT22;10676;50.848;3.272;2023-04-30T05:47:46;15.90;99.90
21035;DHT22;10676;50.848;3.272;2023-04-30T05:50:12;16.40;99.90
21035;DHT22;10676;50.848;3.272;2023-04-30T05:52:38;16.90;99.90
21035;DHT22;10676;50.848;3.272;2023-04-30T05:55:04;17.30;99.90
21035;DHT22;10676;50.848;3.272;2023-04-30T05:57:30;17.70;99.90
21035;DHT22;10676;50.848;3.272;2023-04-30T05:59:56;18.00;99.90
21035;DHT22;10676;50.848;3.272;2023-04-30T06:02:21;18.40;99.90
21035;DHT22;10676;50.848;3.272;2023-04-30T06:04:47;18.70;99.90
21035;DHT22;10676;50.848;3.272;2023-04-30T06:07:13;19.10;99.90
21035;DHT22;10676;50.848;3.272;2023-04-30T06:09:38;19.40;99.90
21035;DHT22;10676;50.848;3.272;2023-04-30T06:12:04;19.50;99.90
21035;DHT22;10676;50.848;3.272;2023-04-30T06:14:30;19.40;99.90
21035;DHT22;10676;50.848;3.272;2023-04-30T06:16:56;19.30;99.90
21035;DHT22;10676;50.848;3.272;2023-04-30T06:19:21;19.30;99.90
21035;DHT22;10676;50.848;3.272;2023-04-30T06:21:47;19.50;99.90
21035;DHT22;10676;50.848;3.272;2023-04-30T06:24:13;19.80;99.90
21035;DHT22;10676;50.848;3.272;2023-04-30T06:26:38;20.00;99.90
21035;DHT22;10676;50.848;3.272;2023-04-30T06:29:04;20.00;99.90
21035;DHT22;10676;50.848;3.272;2023-04-30T06:31:30;19.90;99.90
21035;DHT22;10676;50.848;3.272;2023-04-30T06:33:56;19.70;99.90
21035;DHT22;10676;50.848;3.272;2023-04-30T06:36:21;19.80;99.90
21035;DHT22;10676;50.848;3.272;2023-04-30T06:38:47;20.10;99.90
21035;DHT22;10676;50.848;3.272;2023-04-30T06:41:13;20.40;99.90
21035;DHT22;10676;50.848;3.272;2023-04-30T06:43:39;20.70;99.90
21035;DHT22;10676;50.848;3.272;2023-04-30T06:46:05;20.90;99.90
21035;DHT22;10676;50.848;3.272;2023-04-30T06:48:31;21.20;99.90
21035;DHT22;10676;50.848;3.272;2023-04-30T06:50:57;21.50;99.90
21035;DHT22;10676;50.848;3.272;2023-04-30T06:53:23;21.80;99.90
21035;DHT22;10676;50.848;3.272;2023-04-30T06:55:50;22.10;99.90
21035;DHT22;10676;50.848;3.272;2023-04-30T06:58:15;22.30;99.90
21035;DHT22;10676;50.848;3.272;2023-04-30T07:00:44;22.50;99.90
21035;DHT22;10676;50.848;3.272;2023-04-30T07:03:10;22.60;99.90
21035;DHT22;10676;50.848;3.272;2023-04-30T07:05:35;22.80;99.90
21035;DHT22;10676;50.848;3.272;2023-04-30T07:08:02;23.00;99.70
21035;DHT22;10676;50.848;3.272;2023-04-30T07:10:28;23.30;99.00
21035;DHT22;10676;50.848;3.272;2023-04-30T07:12:55;23.70;97.60
21035;DHT22;10676;50.848;3.272;2023-04-30T07:15:21;24.10;96.40
21035;DHT22;10676;50.848;3.272;2023-04-30T07:17:46;24.40;95.30
21035;DHT22;10676;50.848;3.272;2023-04-30T07:20:12;24.80;94.70
21035;DHT22;10676;50.848;3.272;2023-04-30T07:22:42;25.20;93.20
21035;DHT22;10676;50.848;3.272;2023-04-30T07:25:14;25.60;92.00
21035;DHT22;10676;50.848;3.272;2023-04-30T07:27:40;26.00;91.20
21035;DHT22;10676;50.848;3.272;2023-04-30T07:30:06;26.30;90.30
21035;DHT22;10676;50.848;3.272;2023-04-30T07:32:35;26.70;88.30
21035;DHT22;10676;50.848;3.272;2023-04-30T07:35:00;27.20;85.30
21035;DHT22;10676;50.848;3.272;2023-04-30T07:37:26;27.80;82.00
21035;DHT22;10676;50.848;3.272;2023-04-30T07:39:52;28.20;79.60
21035;DHT22;10676;50.848;3.272;2023-04-30T07:42:18;28.60;78.10
21035;DHT22;10676;50.848;3.272;2023-04-30T07:44:44;29.00;76.00
21035;DHT22;10676;50.848;3.272;2023-04-30T07:47:10;29.50;74.10
21035;DHT22;10676;50.848;3.272;2023-04-30T07:49:36;29.70;71.60
21035;DHT22;10676;50.848;3.272;2023-04-30T07:52:02;29.80;70.70
21035;DHT22;10676;50.848;3.272;2023-04-30T07:54:28;30.00;69.30
21035;DHT22;10676;50.848;3.272;2023-04-30T07:56:55;30.30;68.10
21035;DHT22;10676;50.848;3.272;2023-04-30T07:59:20;30.50;66.40
21035;DHT22;10676;50.848;3.272;2023-04-30T08:01:49;30.70;64.70
21035;DHT22;10676;50.848;3.272;2023-04-30T08:04:15;30.90;63.80
21035;DHT22;10676;50.848;3.272;2023-04-30T08:06:41;31.00;62.90
21035;DHT22;10676;50.848;3.272;2023-04-30T08:09:07;31.20;62.00
21035;DHT22;10676;50.848;3.272;2023-04-30T08:11:36;31.40;61.50
21035;DHT22;10676;50.848;3.272;2023-04-30T08:14:02;31.70;61.00
21035;DHT22;10676;50.848;3.272;2023-04-30T08:16:27;32.00;59.50
21035;DHT22;10676;50.848;3.272;2023-04-30T08:18:53;32.40;58.40
21035;DHT22;10676;50.848;3.272;2023-04-30T08:21:19;32.30;57.40
21035;DHT22;10676;50.848;3.272;2023-04-30T08:23:45;32.20;57.90
21035;DHT22;10676;50.848;3.272;2023-04-30T08:26:10;32.30;57.00
21035;DHT22;10676;50.848;3.272;2023-04-30T08:28:37;32.40;56.10
21035;DHT22;10676;50.848;3.272;2023-04-30T08:31:03;32.50;55.90
21035;DHT22;10676;50.848;3.272;2023-04-30T08:33:29;32.70;54.90
21035;DHT22;10676;50.848;3.272;2023-04-30T08:35:56;32.80;54.70
21035;DHT22;10676;50.848;3.272;2023-04-30T08:38:22;33.00;54.40
21035;DHT22;10676;50.848;3.272;2023-04-30T08:41:14;33.30;53.30
21035;DHT22;10676;50.848;3.272;2023-04-30T08:43:42;33.70;54.40
21035;DHT22;10676;50.848;3.272;2023-04-30T08:46:11;33.60;52.80
21035;DHT22;10676;50.848;3.272;2023-04-30T08:48:39;33.50;52.50
21035;DHT22;10676;50.848;3.272;2023-04-30T08:51:19;33.40;52.10
21035;DHT22;10676;50.848;3.272;2023-04-30T08:53:47;33.30;52.90
21035;DHT22;10676;50.848;3.272;2023-04-30T08:56:15;33.10;51.70
21035;DHT22;10676;50.848;3.272;2023-04-30T08:58:41;33.00;52.20
21035;DHT22;10676;50.848;3.272;2023-04-30T09:01:09;33.00;51.70
21035;DHT22;10676;50.848;3.272;2023-04-30T09:03:36;32.70;51.50
21035;DHT22;10676;50.848;3.272;2023-04-30T09:06:01;32.50;52.30
21035;DHT22;10676;50.848;3.272;2023-04-30T09:08:47;32.50;52.50
21035;DHT22;10676;50.848;3.272;2023-04-30T09:13:50;32.70;52.40
21035;DHT22;10676;50.848;3.272;2023-04-30T09:16:17;32.50;51.70
21035;DHT22;10676;50.848;3.272;2023-04-30T09:18:43;32.50;51.50
21035;DHT22;10676;50.848;3.272;2023-04-30T09:21:09;32.40;50.80
21035;DHT22;10676;50.848;3.272;2023-04-30T09:23:35;32.30;50.60
21035;DHT22;10676;50.848;3.272;2023-04-30T09:26:01;31.90;51.10
21035;DHT22;10676;50.848;3.272;2023-04-30T09:28:27;31.60;51.50
21035;DHT22;10676;50.848;3.272;2023-04-30T09:30:56;31.60;52.30
21035;DHT22;10676;50.848;3.272;2023-04-30T09:33:22;31.30;52.40
21035;DHT22;10676;50.848;3.272;2023-04-30T09:35:47;31.20;53.20
21035;DHT22;10676;50.848;3.272;2023-04-30T09:38:30;31.20;52.60
21035;DHT22;10676;50.848;3.272;2023-04-30T09:41:00;31.30;52.50
21035;DHT22;10676;50.848;3.272;2023-04-30T09:43:29;31.20;53.10
21035;DHT22;10676;50.848;3.272;2023-04-30T09:45:58;31.20;51.80
21035;DHT22;10676;50.848;3.272;2023-04-30T09:48:25;31.00;52.20
21035;DHT22;10676;50.848;3.272;2023-04-30T09:50:52;30.80;53.70
21035;DHT22;10676;50.848;3.272;2023-04-30T09:53:19;30.90;53.40
21035;DHT22;10676;50.848;3.272;2023-04-30T09:55:49;31.00;52.80
21035;DHT22;10676;50.848;3.272;2023-04-30T09:58:16;31.00;52.40
21035;DHT22;10676;50.848;3.272;2023-04-30T10:00:44;30.80;53.80
21035;DHT22;10676;50.848;3.272;2023-04-30T10:03:12;30.70;52.70
21035;DHT22;10676;50.848;3.272;2023-04-30T10:05:45;30.80;52.40
21035;DHT22;10676;50.848;3.272;2023-04-30T10:08:31;31.10;52.50
21035;DHT22;10676;50.848;3.272;2023-04-30T10:11:02;31.40;52.40
21035;DHT22;10676;50.848;3.272;2023-04-30T10:13:32;31.40;52.00
21035;DHT22;10676;50.848;3.272;2023-04-30T10:16:06;31.40;51.80
21035;DHT22;10676;50.848;3.272;2023-04-30T10:18:38;31.60;50.50
21035;DHT22;10676;50.848;3.272;2023-04-30T10:21:06;31.40;51.00
21035;DHT22;10676;50.848;3.272;2023-04-30T10:23:40;31.30;50.80
21035;DHT22;10676;50.848;3.272;2023-04-30T10:26:09;31.20;50.60
21035;DHT22;10676;50.848;3.272;2023-04-30T10:28:37;31.10;50.80
21035;DHT22;10676;50.848;3.272;2023-04-30T10:31:04;30.90;51.40
21035;DHT22;10676;50.848;3.272;2023-04-30T10:36:06;31.60;50.80
21035;DHT22;10676;50.848;3.272;2023-04-30T10:38:37;31.70;51.40
21035;DHT22;10676;50.848;3.272;2023-04-30T10:41:05;31.80;50.30
21035;DHT22;10676;50.848;3.272;2023-04-30T10:43:32;32.00;50.30
21035;DHT22;10676;50.848;3.272;2023-04-30T10:46:01;32.00;49.20
21035;DHT22;10676;50.848;3.272;2023-04-30T10:48:27;31.90;49.30
21035;DHT22;10676;50.848;3.272;2023-04-30T10:50:57;31.50;49.90
21035;DHT22;10676;50.848;3.272;2023-04-30T10:53:23;31.00;50.80
21035;DHT22;10676;50.848;3.272;2023-04-30T10:55:56;30.50;51.90
21035;DHT22;10676;50.848;3.272;2023-04-30T10:58:28;30.30;52.10
21035;DHT22;10676;50.848;3.272;2023-04-30T11:01:14;30.40;51.40
21035;DHT22;10676;50.848;3.272;2023-04-30T11:07:08;30.60;50.80
21035;DHT22;10676;50.848;3.272;2023-04-30T11:09:47;30.50;50.80
21035;DHT22;10676;50.848;3.272;2023-04-30T11:12:15;30.40;50.20
21035;DHT22;10676;50.848;3.272;2023-04-30T11:14:44;30.00;51.20
21035;DHT22;10676;50.848;3.272;2023-04-30T11:17:21;29.70;52.00
21035;DHT22;10676;50.848;3.272;2023-04-30T11:19:51;29.70;52.20
21035;DHT22;10676;50.848;3.272;2023-04-30T11:22:17;29.60;52.50
21035;DHT22;10676;50.848;3.272;2023-04-30T11:24:51;29.30;52.80
21035;DHT22;10676;50.848;3.272;2023-04-30T11:27:25;29.30;52.70
21035;DHT22;10676;50.848;3.272;2023-04-30T11:29:52;29.40;52.80
21035;DHT22;10676;50.848;3.272;2023-04-30T11:32:19;29.60;52.80
21035;DHT22;10676;50.848;3.272;2023-04-30T11:34:45;29.90;52.40
21035;DHT22;10676;50.848;3.272;2023-04-30T11:37:12;30.00;51.40
21035;DHT22;10676;50.848;3.272;2023-04-30T11:39:41;30.00;50.90
21035;DHT22;10676;50.848;3.272;2023-04-30T11:42:08;30.00;52.00
21035;DHT22;10676;50.848;3.272;2023-04-30T11:44:34;29.90;51.90
21035;DHT22;10676;50.848;3.272;2023-04-30T11:47:00;29.90;52.40
21035;DHT22;10676;50.848;3.272;2023-04-30T11:49:26;29.90;52.10
21035;DHT22;10676;50.848;3.272;2023-04-30T11:51:52;29.70;52.20
21035;DHT22;10676;50.848;3.272;2023-04-30T11:54:18;29.30;52.40
21035;DHT22;10676;50.848;3.272;2023-04-30T11:56:47;28.90;53.20
21035;DHT22;10676;50.848;3.272;2023-04-30T11:59:14;28.80;53.20
21035;DHT22;10676;50.848;3.272;2023-04-30T12:01:41;28.80;52.70
21035;DHT22;10676;50.848;3.272;2023-04-30T12:04:07;28.90;52.90
21035;DHT22;10676;50.848;3.272;2023-04-30T12:06:35;28.90;51.80
21035;DHT22;10676;50.848;3.272;2023-04-30T12:09:03;28.80;52.30
21035;DHT22;10676;50.848;3.272;2023-04-30T12:11:34;28.80;52.70
21035;DHT22;10676;50.848;3.272;2023-04-30T12:14:02;28.70;53.30
21035;DHT22;10676;50.848;3.272;2023-04-30T12:16:42;28.60;53.40
21035;DHT22;10676;50.848;3.272;2023-04-30T12:19:14;28.80;53.10
21035;DHT22;10676;50.848;3.272;2023-04-30T12:21:41;29.50;52.40
21035;DHT22;10676;50.848;3.272;2023-04-30T12:24:14;30.00;51.80
21035;DHT22;10676;50.848;3.272;2023-04-30T12:26:40;30.30;51.60
21035;DHT22;10676;50.848;3.272;2023-04-30T12:29:17;30.60;51.40
21035;DHT22;10676;50.848;3.272;2023-04-30T12:31:43;30.90;50.60
21035;DHT22;10676;50.848;3.272;2023-04-30T12:34:12;31.20;49.90
21035;DHT22;10676;50.848;3.272;2023-04-30T12:36:39;31.60;50.70
21035;DHT22;10676;50.848;3.272;2023-04-30T12:39:10;32.10;49.60
21035;DHT22;10676;50.848;3.272;2023-04-30T12:41:44;32.50;48.40
21035;DHT22;10676;50.848;3.272;2023-04-30T12:46:44;32.10;49.10
21035;DHT22;10676;50.848;3.272;2023-04-30T12:49:11;31.80;47.80
21035;DHT22;10676;50.848;3.272;2023-04-30T12:51:37;31.60;47.40
21035;DHT22;10676;50.848;3.272;2023-04-30T12:54:06;31.40;48.40
21035;DHT22;10676;50.848;3.272;2023-04-30T12:56:32;31.20;47.40
21035;DHT22;10676;50.848;3.272;2023-04-30T12:58:57;31.10;48.30
21035;DHT22;10676;50.848;3.272;2023-04-30T13:01:23;31.20;48.80
21035;DHT22;10676;50.848;3.272;2023-04-30T13:03:51;31.40;48.20
21035;DHT22;10676;50.848;3.272;2023-04-30T13:06:17;31.30;48.30
21035;DHT22;10676;50.848;3.272;2023-04-30T13:08:43;30.90;48.30
21035;DHT22;10676;50.848;3.272;2023-04-30T13:11:09;30.50;48.90
21035;DHT22;10676;50.848;3.272;2023-04-30T13:13:35;30.00;49.80
21035;DHT22;10676;50.848;3.272;2023-04-30T13:16:01;29.60;51.00
21035;DHT22;10676;50.848;3.272;2023-04-30T13:18:28;29.60;49.70
21035;DHT22;10676;50.848;3.272;2023-04-30T13:20:54;29.80;50.20
21035;DHT22;10676;50.848;3.272;2023-04-30T13:23:19;30.10;50.00
21035;DHT22;10676;50.848;3.272;2023-04-30T13:25:45;30.50;48.50
21035;DHT22;10676;50.848;3.272;2023-04-30T13:28:11;30.50;47.60
21035;DHT22;10676;50.848;3.272;2023-04-30T13:30:37;30.30;47.80
21035;DHT22;10676;50.848;3.272;2023-04-30T13:33:03;29.90;48.60
21035;DHT22;10676;50.848;3.272;2023-04-30T13:35:29;29.50;49.20
21035;DHT22;10676;50.848;3.272;2023-04-30T13:37:57;29.30;49.50
21035;DHT22;10676;50.848;3.272;2023-04-30T13:40:23;29.10;50.20
21035;DHT22;10676;50.848;3.272;2023-04-30T13:42:49;28.90;51.20
21035;DHT22;10676;50.848;3.272;2023-04-30T13:45:14;28.80;50.80
21035;DHT22;10676;50.848;3.272;2023-04-30T13:47:40;28.80;50.40
21035;DHT22;10676;50.848;3.272;2023-04-30T13:50:06;28.80;50.10
21035;DHT22;10676;50.848;3.272;2023-04-30T13:52:33;28.80;50.70
21035;DHT22;10676;50.848;3.272;2023-04-30T13:54:59;28.50;50.80
21035;DHT22;10676;50.848;3.272;2023-04-30T13:57:25;28.20;50.90
21035;DHT22;10676;50.848;3.272;2023-04-30T13:59:53;27.90;52.00
21035;DHT22;10676;50.848;3.272;2023-04-30T14:02:18;27.70;52.70
21035;DHT22;10676;50.848;3.272;2023-04-30T14:04:44;27.60;52.60
21035;DHT22;10676;50.848;3.272;2023-04-30T14:07:10;27.50;52.30
21035;DHT22;10676;50.848;3.272;2023-04-30T14:09:36;27.50;52.90
21035;DHT22;10676;50.848;3.272;2023-04-30T14:12:01;27.80;53.00
21035;DHT22;10676;50.848;3.272;2023-04-30T14:14:27;28.00;52.30
21035;DHT22;10676;50.848;3.272;2023-04-30T14:16:53;28.40;51.90
21035;DHT22;10676;50.848;3.272;2023-04-30T14:19:21;28.70;50.80
21035;DHT22;10676;50.848;3.272;2023-04-30T14:21:47;28.80;51.30
21035;DHT22;10676;50.848;3.272;2023-04-30T14:24:12;28.80;51.00
21035;DHT22;10676;50.848;3.272;2023-04-30T14:26:41;28.80;51.80
21035;DHT22;10676;50.848;3.272;2023-04-30T14:29:07;28.80;50.60
21035;DHT22;10676;50.848;3.272;2023-04-30T14:31:33;28.90;50.60
21035;DHT22;10676;50.848;3.272;2023-04-30T14:33:59;28.90;50.70
21035;DHT22;10676;50.848;3.272;2023-04-30T14:36:25;28.90;50.80
21035;DHT22;10676;50.848;3.272;2023-04-30T14:38:52;28.90;50.80
21035;DHT22;10676;50.848;3.272;2023-04-30T14:41:18;28.80;51.40
21035;DHT22;10676;50.848;3.272;2023-04-30T14:43:44;28.50;51.60
21035;DHT22;10676;50.848;3.272;2023-04-30T14:46:10;28.30;51.90
21035;DHT22;10676;50.848;3.272;2023-04-30T14:48:36;28.00;51.80
21035;DHT22;10676;50.848;3.272;2023-04-30T14:51:02;27.60;52.40
21035;DHT22;10676;50.848;3.272;2023-04-30T14:53:28;27.30;52.40
21035;DHT22;10676;50.848;3.272;2023-04-30T14:55:53;26.90;52.40
21035;DHT22;10676;50.848;3.272;2023-04-30T14:58:19;26.60;52.70
21035;DHT22;10676;50.848;3.272;2023-04-30T15:00:45;26.20;52.90
21035;DHT22;10676;50.848;3.272;2023-04-30T15:03:12;25.80;53.80
21035;DHT22;10676;50.848;3.272;2023-04-30T15:05:39;25.50;54.50
21035;DHT22;10676;50.848;3.272;2023-04-30T15:08:05;25.20;54.70
21035;DHT22;10676;50.848;3.272;2023-04-30T15:10:31;25.00;55.00
21035;DHT22;10676;50.848;3.272;2023-04-30T15:12:56;24.90;56.40
21035;DHT22;10676;50.848;3.272;2023-04-30T15:15:22;25.00;56.70
21035;DHT22;10676;50.848;3.272;2023-04-30T15:17:53;25.40;57.50
21035;DHT22;10676;50.848;3.272;2023-04-30T15:20:19;26.00;55.90
21035;DHT22;10676;50.848;3.272;2023-04-30T15:22:45;26.70;54.90
21035;DHT22;10676;50.848;3.272;2023-04-30T15:25:11;27.40;54.70
21035;DHT22;10676;50.848;3.272;2023-04-30T15:27:36;28.10;53.00
21035;DHT22;10676;50.848;3.272;2023-04-30T15:30:04;28.60;52.10
21035;DHT22;10676;50.848;3.272;2023-04-30T15:32:31;28.90;51.00
21035;DHT22;10676;50.848;3.272;2023-04-30T15:34:57;29.00;50.10
21035;DHT22;10676;50.848;3.272;2023-04-30T15:37:23;28.70;49.90
21035;DHT22;10676;50.848;3.272;2023-04-30T15:39:48;28.10;50.10
21035;DHT22;10676;50.848;3.272;2023-04-30T15:42:14;27.50;51.30
21035;DHT22;10676;50.848;3.272;2023-04-30T15:44:40;26.90;52.20
21035;DHT22;10676;50.848;3.272;2023-04-30T15:47:05;26.40;52.80
21035;DHT22;10676;50.848;3.272;2023-04-30T15:49:31;25.90;53.30
21035;DHT22;10676;50.848;3.272;2023-04-30T15:51:57;25.50;54.60
21035;DHT22;10676;50.848;3.272;2023-04-30T15:54:22;25.10;55.60
21035;DHT22;10676;50.848;3.272;2023-04-30T15:56:48;24.80;56.20
21035;DHT22;10676;50.848;3.272;2023-04-30T15:59:14;24.60;56.50
21035;DHT22;10676;50.848;3.272;2023-04-30T16:01:41;24.40;56.50